createdAt,value
2022-11-23T00:04:20.601Z,75.5
2022-11-23T00:10:43.579Z,75.51
2022-11-23T00:17:03.698Z,75.31
2022-11-23T00:23:26.556Z,75.48
2022-11-23T00:29:46.574Z,75.32
2022-11-23T00:36:09.581Z,75.49
2022-11-23T00:42:32.574Z,75.51
2022-11-23T00:48:52.608Z,75.43
2022-11-23T00:55:12.628Z,75.95
2022-11-23T01:01:35.663Z,75.62
2022-11-23T01:07:55.562Z,75.82
2022-11-23T01:14:18.647Z,75.76
2022-11-23T01:20:38.585Z,75.61
2022-11-23T01:27:01.582Z,75.75
2022-11-23T01:33:21.588Z,75.86
2022-11-23T01:39:44.585Z,76.06
2022-11-23T01:46:04.572Z,76.57
2022-11-23T01:52:27.611Z,76.68
2022-11-23T01:58:47.575Z,77.04
2022-11-23T02:05:10.602Z,76.99
2022-11-23T02:11:30.600Z,77
2022-11-23T02:17:53.589Z,77.05
2022-11-23T02:24:13.580Z,77.27
2022-11-23T02:30:36.572Z,77.12
2022-11-23T02:36:56.579Z,77.12
2022-11-23T02:43:19.586Z,76.98
2022-11-23T02:49:39.598Z,77.26
2022-11-23T02:56:02.543Z,77.03
2022-11-23T03:02:22.672Z,76.78
2022-11-23T03:08:45.592Z,76.79
2022-11-23T03:15:05.625Z,77.14
2022-11-23T03:21:28.573Z,77.11
2022-11-23T03:27:48.647Z,76.88
2022-11-23T03:34:11.593Z,76.44
2022-11-23T03:40:31.571Z,76.1
2022-11-23T03:46:54.680Z,75.86
2022-11-23T03:53:14.554Z,75.58
2022-11-23T03:59:37.586Z,75.55
2022-11-23T04:05:57.631Z,75.28
2022-11-23T04:12:20.586Z,75.15
2022-11-23T04:18:40.574Z,75.01
2022-11-23T04:25:03.641Z,75.41
2022-11-23T04:48:27.108Z,75.71
2022-11-23T04:54:46.566Z,75.96
2022-11-23T05:01:09.674Z,75.44
2022-11-23T05:07:29.672Z,75.7
2022-11-23T05:13:52.576Z,75.72
2022-11-23T05:20:12.592Z,76.04
2022-11-23T05:26:35.612Z,75.9
2022-11-23T05:32:55.623Z,76.15
2022-11-23T05:39:18.557Z,76.39
2022-11-23T05:45:38.584Z,76.73
2022-11-23T05:52:01.610Z,76.31
2022-11-23T05:58:21.554Z,76.65
2022-11-23T06:04:44.597Z,76.51
2022-11-23T06:11:04.554Z,76.86
2022-11-23T06:17:27.571Z,76.64
2022-11-23T06:23:47.597Z,76.71
2022-11-23T06:30:10.563Z,76.69
2022-11-23T06:36:30.596Z,76.78
2022-11-23T06:42:53.602Z,76.48
2022-11-23T06:49:13.625Z,76.94
2022-11-23T06:55:36.557Z,77.04
2022-11-23T07:01:56.597Z,77.3
2022-11-23T07:08:19.568Z,77.42
2022-11-23T07:14:39.641Z,77.8
2022-11-23T07:21:02.623Z,77.58
2022-11-23T07:27:22.577Z,77.58
2022-11-23T07:33:45.599Z,77.23
2022-11-23T07:40:06.112Z,77.3
2022-11-23T07:46:28.570Z,77.44
2022-11-23T07:52:48.578Z,77.37
2022-11-23T07:59:11.609Z,77.03
2022-11-23T08:05:31.565Z,77.17
2022-11-23T08:11:54.623Z,77.08
2022-11-23T08:18:14.576Z,75.89
2022-11-23T08:24:37.594Z,75.07
2022-11-23T08:30:57.612Z,74.37
2022-11-23T08:37:20.628Z,73.9
2022-11-23T08:43:40.587Z,73.73
2022-11-23T08:50:03.560Z,73.79
2022-11-23T08:56:23.601Z,72.78
2022-11-23T09:02:46.610Z,72.27
2022-11-23T09:09:06.582Z,71.79
2022-11-23T09:15:29.625Z,70.94
2022-11-23T09:21:49.570Z,70.27
2022-11-23T09:28:12.614Z,70.48
2022-11-23T09:34:32.733Z,69.35
2022-11-23T09:40:57.754Z,69.36
2022-11-23T09:47:15.578Z,69.13
2022-11-23T09:53:38.639Z,68.68
2022-11-23T10:09:45.524Z,68.24
2022-11-23T10:16:05.561Z,68.73
2022-11-23T10:22:28.565Z,68.27
2022-11-23T10:28:48.603Z,68.49
2022-11-23T10:35:11.551Z,66.77
2022-11-23T10:41:31.618Z,67.45
2022-11-23T10:47:54.614Z,66.42
2022-11-23T10:54:14.559Z,65.59
2022-11-23T11:00:37.618Z,64.64
2022-11-23T11:06:57.593Z,62.01
2022-11-23T11:13:20.634Z,61.55
2022-11-23T11:19:40.572Z,61.94
2022-11-23T11:26:03.635Z,61.74
2022-11-23T11:32:23.600Z,60.33
2022-11-23T11:39:01.607Z,59.97
2022-11-23T11:45:06.640Z,60.53
2022-11-23T11:51:29.575Z,62.18
2022-11-23T11:57:49.576Z,62.9
2022-11-23T12:04:12.616Z,63.27
2022-11-23T12:10:32.553Z,63.15
2022-11-23T12:17:17.260Z,62.77
2022-11-23T12:23:15.633Z,62.91
2022-11-23T12:29:38.567Z,62.62
2022-11-23T12:35:58.589Z,60.11
2022-11-23T12:42:21.819Z,59.4
2022-11-23T12:48:41.822Z,59.98
2022-11-23T12:55:04.577Z,61.08
2022-11-23T13:01:30.584Z,62.88
2022-11-23T13:07:49.389Z,63.27
2022-11-23T13:14:08.568Z,63.39
2022-11-23T13:20:31.731Z,62.7
2022-11-23T13:26:51.575Z,61.63
2022-11-23T13:33:14.599Z,61.69
2022-11-23T13:39:34.787Z,61.76
2022-11-23T13:45:57.592Z,62.3
2022-11-23T13:52:17.589Z,63.08
2022-11-23T13:58:40.591Z,64.49
2022-11-23T14:05:00.562Z,64.19
2022-11-23T14:11:23.607Z,63.79
2022-11-23T14:17:43.610Z,64.1
2022-11-23T14:24:08.847Z,64.32
2022-11-23T14:30:26.567Z,64.39
2022-11-23T14:36:49.651Z,65.01
2022-11-23T14:43:09.583Z,65.43
2022-11-23T14:49:32.562Z,65.73
2022-11-23T14:55:52.635Z,66.57
2022-11-23T15:02:15.604Z,66.92
2022-11-23T15:08:35.584Z,66.19
2022-11-23T15:14:58.652Z,66.61
2022-11-23T15:21:21.404Z,67.26
2022-11-23T15:38:23.735Z,73.05
2022-11-23T15:44:43.867Z,73.89
2022-11-23T15:51:04.585Z,74.47
2022-11-23T15:57:24.605Z,75.7
2022-11-23T16:03:47.561Z,77.31
2022-11-23T16:10:07.583Z,77.6
2022-11-23T16:16:30.876Z,81.38
2022-11-23T16:22:50.568Z,81.75
2022-11-23T16:29:13.571Z,83.09
2022-11-23T16:35:33.639Z,84.07
2022-11-23T16:41:56.655Z,83.3
2022-11-23T16:48:16.673Z,83.57
2022-11-23T16:54:39.649Z,83.32
2022-11-23T17:00:59.770Z,83.76
2022-11-23T17:07:22.629Z,83.35
2022-11-23T17:13:42.628Z,84.06
2022-11-23T17:20:08.267Z,84.61
2022-11-23T17:26:27.593Z,85.93
2022-11-23T17:32:50.593Z,87.15
2022-11-23T17:39:10.613Z,87.95
2022-11-23T17:45:33.584Z,88.09
2022-11-23T17:51:53.629Z,87.91
2022-11-23T17:58:16.603Z,87.96
2022-11-23T18:04:36.579Z,88.1
2022-11-23T18:10:59.644Z,87.98
2022-11-23T18:17:19.578Z,88.27
2022-11-23T18:23:42.600Z,88.29
2022-11-23T18:30:02.921Z,88.38
2022-11-23T18:36:25.602Z,88.35
2022-11-23T18:42:45.636Z,88.17
2022-11-23T18:49:08.808Z,88.02
2022-11-23T18:55:28.583Z,88
2022-11-23T19:01:51.644Z,87.9
2022-11-23T19:08:11.607Z,88.02
2022-11-23T19:14:34.599Z,87.77
2022-11-23T19:20:54.576Z,87.62
2022-11-23T19:27:17.634Z,87.72
2022-11-23T19:33:37.619Z,87.83
2022-11-23T19:40:00.568Z,87.87
2022-11-23T19:46:20.657Z,87.95
2022-11-23T19:53:10.311Z,87.57
2022-11-23T19:59:03.887Z,87
2022-11-23T20:05:26.621Z,87.06
2022-11-23T20:11:50.557Z,86.84
2022-11-23T20:18:09.601Z,87.07
2022-11-23T20:24:29.644Z,87.1
2022-11-23T20:40:04.487Z,87.25
2022-11-23T20:46:45.971Z,87.16
2022-11-23T20:52:47.595Z,87.18
2022-11-23T20:59:07.688Z,87.68
2022-11-23T21:05:30.632Z,87.13
2022-11-23T21:11:50.619Z,87.23
2022-11-23T21:18:14.203Z,87.2
2022-11-23T21:24:35.171Z,87.31
2022-11-23T21:30:57.694Z,87.04
2022-11-23T21:37:17.614Z,87.4
2022-11-23T21:43:40.642Z,87.31
2022-11-23T21:50:00.612Z,87.17
2022-11-23T21:56:23.663Z,87.21
2022-11-23T22:02:43.612Z,87.96
2022-11-23T22:09:06.583Z,88.92
2022-11-23T22:15:26.663Z,88.93
2022-11-23T22:21:49.584Z,89.31
2022-11-23T22:28:09.589Z,89.39
2022-11-23T22:34:32.926Z,89.69
2022-11-23T22:40:52.605Z,89.41
2022-11-23T22:47:15.610Z,88.77
2022-11-23T22:53:36.672Z,88.32
2022-11-23T22:59:58.564Z,87.65
2022-11-23T23:22:55.579Z,87.78
2022-11-23T23:29:15.589Z,87.61
2022-11-23T23:35:38.584Z,87.74
2022-11-23T23:41:58.628Z,88.01
2022-11-23T23:48:21.585Z,88.2
2022-11-23T23:54:41.652Z,88.27
